createdAt,value
2018-02-08T00:00:42.128Z,95.38
2018-02-08T00:03:11.963Z,95.27
2018-02-08T00:05:41.792Z,95.03
2018-02-08T00:08:11.636Z,95.08
2018-02-08T00:10:41.590Z,95.05
2018-02-08T00:13:11.188Z,94.82
2018-02-08T00:15:41.004Z,94.17
2018-02-08T00:18:10.830Z,93.74
2018-02-08T00:20:40.690Z,93.81
2018-02-08T00:23:10.541Z,93.80
2018-02-08T00:25:40.405Z,93.74
2018-02-08T00:28:10.203Z,93.54
2018-02-08T00:30:40.053Z,93.54
2018-02-08T00:33:09.893Z,93.95
2018-02-08T00:35:39.754Z,94.04
2018-02-08T00:38:09.583Z,94.13
2018-02-08T00:40:39.438Z,94.12
2018-02-08T00:43:09.281Z,93.94
2018-02-08T00:45:39.081Z,93.78
2018-02-08T00:48:08.897Z,93.84
2018-02-08T00:50:38.733Z,94.08
2018-02-08T00:53:08.872Z,93.84
2018-02-08T00:55:38.723Z,93.97
2018-02-08T00:58:08.534Z,94.51
2018-02-08T01:00:38.216Z,94.80
2018-02-08T01:03:08.040Z,94.13
2018-02-08T01:05:37.912Z,93.98
2018-02-08T01:08:07.744Z,94.44
2018-02-08T01:10:37.585Z,94.58
2018-02-08T01:13:07.408Z,94.87
2018-02-08T01:15:37.222Z,94.86
2018-02-08T01:18:07.033Z,94.40
2018-02-08T01:20:36.609Z,94.38
2018-02-08T01:23:06.435Z,94.56
2018-02-08T01:25:36.283Z,94.57
2018-02-08T01:28:06.177Z,94.65
2018-02-08T01:30:36.004Z,94.36
2018-02-08T01:33:05.816Z,94.36
2018-02-08T01:35:35.637Z,94.35
2018-02-08T01:38:05.441Z,94.49
2018-02-08T01:40:35.288Z,94.68
2018-02-08T01:43:05.127Z,94.56
2018-02-08T01:45:34.945Z,94.71
2018-02-08T01:48:04.753Z,95.03
2018-02-08T01:50:34.781Z,95.30
2018-02-08T01:53:04.636Z,95.09
2018-02-08T01:55:34.460Z,95.38
2018-02-08T01:58:04.290Z,95.44
2018-02-08T02:00:34.141Z,94.99
2018-02-08T02:03:03.965Z,94.82
2018-02-08T02:05:33.788Z,94.88
2018-02-08T02:08:03.614Z,95.21
2018-02-08T02:10:33.438Z,95.14
2018-02-08T02:13:02.946Z,95.00
2018-02-08T02:15:32.803Z,94.83
2018-02-08T02:18:02.604Z,94.92
2018-02-08T02:20:32.437Z,94.63
2018-02-08T02:23:02.269Z,94.82
2018-02-08T02:25:32.123Z,94.80
2018-02-08T02:28:02.139Z,94.97
2018-02-08T02:30:32.001Z,94.53
2018-02-08T02:33:01.824Z,94.37
2018-02-08T02:35:31.654Z,94.18
2018-02-08T02:38:01.471Z,94.20
2018-02-08T02:40:31.275Z,93.96
2018-02-08T02:43:01.090Z,94.31
2018-02-08T02:45:30.962Z,94.40
2018-02-08T02:48:01.175Z,94.71
2018-02-08T02:50:31.720Z,94.61
2018-02-08T02:53:01.893Z,94.96
2018-02-08T02:55:31.736Z,94.78
2018-02-08T02:58:01.562Z,94.85
2018-02-08T03:00:31.401Z,94.83
2018-02-08T03:03:01.204Z,95.23
2018-02-08T03:05:31.769Z,95.40
2018-02-08T03:08:01.590Z,95.56
2018-02-08T03:10:31.442Z,95.63
2018-02-08T03:13:01.275Z,95.66
2018-02-08T03:15:31.124Z,95.59
2018-02-08T03:18:00.670Z,95.79
2018-02-08T03:20:30.514Z,95.70
2018-02-08T03:23:00.123Z,95.46
2018-02-08T03:25:29.984Z,95.49
2018-02-08T03:27:59.819Z,95.36
2018-02-08T03:30:30.366Z,95.31
2018-02-08T03:33:00.196Z,95.56
2018-02-08T03:35:30.017Z,95.81
2018-02-08T03:37:59.826Z,95.74
2018-02-08T03:40:29.655Z,95.81
2018-02-08T03:42:59.510Z,95.79
2018-02-08T03:45:29.331Z,95.60
2018-02-08T03:47:59.163Z,95.72
2018-02-08T03:50:29.002Z,95.98
2018-02-08T03:52:58.819Z,96.22
2018-02-08T03:55:28.684Z,96.10
2018-02-08T03:57:58.494Z,95.80
2018-02-08T04:00:28.345Z,95.53
2018-02-08T04:02:58.188Z,95.60
2018-02-08T04:05:28.010Z,95.60
2018-02-08T04:07:57.841Z,95.63
2018-02-08T04:10:27.681Z,95.50
2018-02-08T04:12:57.482Z,95.26
2018-02-08T04:15:27.313Z,95.27
2018-02-08T04:17:57.119Z,95.05
2018-02-08T04:20:27.423Z,95.14
2018-02-08T04:22:57.248Z,94.74
2018-02-08T04:25:27.053Z,94.45
2018-02-08T04:27:56.871Z,94.67
2018-02-08T04:30:26.752Z,94.53
2018-02-08T04:32:56.563Z,94.51
2018-02-08T04:35:26.405Z,94.90
2018-02-08T04:37:56.224Z,94.96
2018-02-08T04:40:36.966Z,94.98
2018-02-08T04:43:17.773Z,94.76
2018-02-08T04:45:58.469Z,94.64
2018-02-08T04:48:28.045Z,94.47
2018-02-08T04:50:57.590Z,94.31
2018-02-08T04:53:27.421Z,93.69
2018-02-08T04:55:57.243Z,93.96
2018-02-08T04:58:27.089Z,94.05
2018-02-08T05:00:56.904Z,93.98
2018-02-08T05:03:26.734Z,94.09
2018-02-08T05:05:56.554Z,94.40
2018-02-08T05:08:26.372Z,94.12
2018-02-08T05:10:56.305Z,94.24
2018-02-08T05:13:26.178Z,94.02
2018-02-08T05:15:56.110Z,93.70
2018-02-08T05:18:25.932Z,94.25
2018-02-08T05:20:55.737Z,94.35
2018-02-08T05:23:30.052Z,94.33
2018-02-08T05:26:00.166Z,94.59
2018-02-08T05:28:30.019Z,93.86
2018-02-08T05:31:00.050Z,93.80
2018-02-08T05:33:29.904Z,93.87
2018-02-08T05:35:59.768Z,94.19
2018-02-08T05:38:29.604Z,93.90
2018-02-08T05:40:59.481Z,93.90
2018-02-08T05:43:29.292Z,93.92
2018-02-08T05:45:59.220Z,93.69
2018-02-08T05:48:29.140Z,93.79
2018-02-08T05:50:59.028Z,94.16
2018-02-08T05:53:28.872Z,94.18
2018-02-08T05:55:58.750Z,94.30
2018-02-08T05:58:29.386Z,94.13
2018-02-08T06:00:59.198Z,94.51
2018-02-08T06:03:29.560Z,93.93
2018-02-08T06:05:59.456Z,93.93
2018-02-08T06:08:29.863Z,93.49
2018-02-08T06:10:59.728Z,93.82
2018-02-08T06:13:32.150Z,93.89
2018-02-08T06:16:03.151Z,93.54
2018-02-08T06:18:33.175Z,93.32
2018-02-08T06:21:03.289Z,93.16
2018-02-08T06:23:33.026Z,93.81
2018-02-08T06:26:02.862Z,93.57
2018-02-08T06:28:34.390Z,93.47
2018-02-08T06:31:05.351Z,93.45
2018-02-08T06:33:35.327Z,94.12
2018-02-08T06:38:59.810Z,93.70
2018-02-08T06:41:31.836Z,93.70
2018-02-08T06:44:04.582Z,93.02
2018-02-08T06:46:35.650Z,92.97
2018-02-08T06:49:06.323Z,93.17
2018-02-08T06:51:37.203Z,92.35
2018-02-08T06:56:42.151Z,92.78
2018-02-08T07:01:47.487Z,92.48
2018-02-08T07:04:17.585Z,92.10
2018-02-08T07:06:47.650Z,92.04
2018-02-08T07:12:54.233Z,93.63
2018-02-08T07:15:24.137Z,93.31
2018-02-08T07:17:53.823Z,92.29
2018-02-08T07:20:24.259Z,92.89
2018-02-08T07:22:54.150Z,92.24
2018-02-08T07:25:23.769Z,91.91
2018-02-08T07:27:53.735Z,91.59
2018-02-08T07:30:23.662Z,91.83
2018-02-08T07:32:57.666Z,91.43
2018-02-08T07:35:28.406Z,91.11
2018-02-08T07:37:58.515Z,91.16
2018-02-08T07:40:28.542Z,91.37
2018-02-08T07:42:59.368Z,90.85
2018-02-08T07:45:29.315Z,91.31
2018-02-08T07:48:00.446Z,90.82
2018-02-08T07:50:30.217Z,91.13
2018-02-08T07:53:00.044Z,90.82
2018-02-08T07:55:30.054Z,90.83
2018-02-08T07:58:00.333Z,90.77
2018-02-08T08:00:30.334Z,91.10
2018-02-08T08:03:00.375Z,91.38
2018-02-08T08:05:30.366Z,90.66
2018-02-08T08:08:00.277Z,90.01
2018-02-08T08:10:30.195Z,89.89
2018-02-08T08:13:00.172Z,89.94
2018-02-08T08:15:30.172Z,90.03
2018-02-08T08:18:00.137Z,89.30
2018-02-08T08:20:30.193Z,89.43
2018-02-08T08:25:37.693Z,88.78
2018-02-08T08:28:07.615Z,88.97
2018-02-08T08:30:37.558Z,89.22
2018-02-08T08:33:08.146Z,88.92
2018-02-08T08:35:38.073Z,88.28
2018-02-08T08:38:13.044Z,87.59
2018-02-08T08:41:08.537Z,87.90
2018-02-08T08:43:43.858Z,87.75
2018-02-08T08:48:57.798Z,87.17
2018-02-08T08:51:27.780Z,87.75
2018-02-08T08:53:57.799Z,87.25
2018-02-08T08:56:27.766Z,86.36
2018-02-08T08:58:57.994Z,86.91
2018-02-08T09:01:28.038Z,85.93
2018-02-08T09:04:02.120Z,85.46
2018-02-08T09:06:33.438Z,85.87
2018-02-08T09:09:03.155Z,85.77
2018-02-08T09:16:43.549Z,85.24
2018-02-08T09:19:15.504Z,85.21
2018-02-08T09:24:18.964Z,84.10
2018-02-08T09:26:48.866Z,83.97
2018-02-08T09:29:18.865Z,83.59
2018-02-08T09:31:48.720Z,83.66
2018-02-08T09:34:18.610Z,83.11
2018-02-08T09:36:48.523Z,82.57
2018-02-08T09:39:18.473Z,83.27
2018-02-08T09:41:49.037Z,82.11
2018-02-08T09:44:20.285Z,81.45
2018-02-08T09:46:50.161Z,81.60
2018-02-08T09:49:20.372Z,82.16
2018-02-08T09:51:50.546Z,80.90
2018-02-08T09:54:21.081Z,82.94
2018-02-08T09:56:50.996Z,81.99
2018-02-08T09:59:21.115Z,81.23
2018-02-08T10:01:52.324Z,81.42
2018-02-08T10:04:22.336Z,81.58
2018-02-08T10:06:53.239Z,83.52
2018-02-08T10:09:23.198Z,81.72
2018-02-08T10:11:52.904Z,81.25
2018-02-08T10:14:22.835Z,80.13
2018-02-08T10:16:53.238Z,80.68
2018-02-08T10:19:23.154Z,82.48
2018-02-08T10:21:54.650Z,82.41
2018-02-08T10:24:26.585Z,81.31
2018-02-08T10:26:56.444Z,81.30
2018-02-08T10:29:26.441Z,79.28
2018-02-08T10:31:57.860Z,78.78
2018-02-08T10:34:27.818Z,77.85
2018-02-08T10:36:57.904Z,78.80
2018-02-08T10:39:27.804Z,78.30
2018-02-08T10:44:34.909Z,78.17
2018-02-08T10:47:04.671Z,77.60
2018-02-08T10:49:35.451Z,78.02
2018-02-08T10:52:10.465Z,76.69
2018-02-08T10:54:40.513Z,77.23
2018-02-08T10:57:10.582Z,77.86
2018-02-08T10:59:41.636Z,76.24
2018-02-08T11:02:12.783Z,76.89
2018-02-08T11:04:53.050Z,75.92
2018-02-08T11:07:23.815Z,74.93
2018-02-08T11:20:26.061Z,74.41
2018-02-08T11:22:56.118Z,74.53
2018-02-08T11:25:27.044Z,74.58
2018-02-08T11:28:00.295Z,76.82
2018-02-08T11:33:31.326Z,73.94
2018-02-08T11:36:01.709Z,73.26
2018-02-08T11:38:32.470Z,72.91
2018-02-08T11:41:10.684Z,74.53
2018-02-08T11:43:48.374Z,72.99
2018-02-08T11:46:21.769Z,72.90
2018-02-08T11:59:35.588Z,71.40
2018-02-08T12:02:05.880Z,69.70
2018-02-08T12:37:54.753Z,70.73
2018-02-08T13:03:36.628Z,70.45
2018-02-08T13:08:51.613Z,70.86
2018-02-08T13:11:24.280Z,70.92
2018-02-08T13:30:52.826Z,71.57
2018-02-08T13:39:18.609Z,72.27
2018-02-08T13:42:37.361Z,71.50
2018-02-08T13:47:54.432Z,72.67
2018-02-08T13:50:46.470Z,72.68
2018-02-08T13:53:21.700Z,72.18
2018-02-08T13:58:56.462Z,72.56
2018-02-08T14:04:06.671Z,74.50
2018-02-08T14:06:43.273Z,72.02
2018-02-08T14:09:13.659Z,72.99
2018-02-08T14:19:46.929Z,72.89
2018-02-08T14:22:16.873Z,73.06
2018-02-08T14:24:47.399Z,73.04
2018-02-08T14:27:17.883Z,73.59
2018-02-08T14:29:47.901Z,73.99
2018-02-08T14:32:17.642Z,74.94
2018-02-08T14:34:47.615Z,73.99
2018-02-08T14:37:18.664Z,74.24
2018-02-08T14:39:49.271Z,74.53
2018-02-08T14:42:19.477Z,76.16
2018-02-08T14:44:49.369Z,76.08
2018-02-08T14:47:19.713Z,75.76
2018-02-08T14:49:49.689Z,76.32
2018-02-08T14:52:19.742Z,74.87
2018-02-08T14:54:49.757Z,75.99
2018-02-08T14:57:20.173Z,76.39
2018-02-08T14:59:50.545Z,75.52
2018-02-08T15:02:21.355Z,76.38
2018-02-08T15:04:51.428Z,76.63
2018-02-08T15:07:21.865Z,77.12
2018-02-08T15:09:52.038Z,77.19
2018-02-08T15:12:22.061Z,77.29
2018-02-08T15:14:51.995Z,78.09
2018-02-08T15:17:24.723Z,77.68
2018-02-08T15:19:55.637Z,77.82
2018-02-08T15:22:25.997Z,77.95
2018-02-08T15:24:55.778Z,78.01
2018-02-08T15:27:27.733Z,79.46
2018-02-08T15:30:00.214Z,80.12
2018-02-08T15:32:30.236Z,80.38
2018-02-08T15:34:59.868Z,80.02
2018-02-08T15:37:29.772Z,79.78
2018-02-08T15:40:00.806Z,81.01
2018-02-08T15:42:30.526Z,80.59
2018-02-08T15:45:01.864Z,81.35
2018-02-08T15:47:32.919Z,81.79
2018-02-08T15:50:03.128Z,81.60
2018-02-08T15:52:33.383Z,82.05
2018-02-08T15:55:06.750Z,82.64
2018-02-08T15:57:38.543Z,82.81
2018-02-08T16:00:08.663Z,82.48
2018-02-08T16:02:38.752Z,83.17
2018-02-08T16:05:10.099Z,83.55
2018-02-08T16:07:40.381Z,82.86
2018-02-08T16:10:12.164Z,83.01
2018-02-08T16:12:44.460Z,83.19
2018-02-08T16:15:15.290Z,84.33
2018-02-08T16:17:47.029Z,84.62
2018-02-08T16:20:18.618Z,85.00
2018-02-08T16:22:48.570Z,85.50
2018-02-08T16:25:18.625Z,84.55
2018-02-08T16:27:48.594Z,85.56
2018-02-08T16:30:18.420Z,85.97
2018-02-08T16:32:48.341Z,85.80
2018-02-08T16:35:18.383Z,86.06
2018-02-08T16:37:48.200Z,86.45
2018-02-08T16:40:18.213Z,86.37
2018-02-08T16:42:47.812Z,86.63
2018-02-08T16:45:17.861Z,86.75
2018-02-08T16:47:47.711Z,87.01
2018-02-08T16:50:18.197Z,87.06
2018-02-08T16:52:48.074Z,88.06
2018-02-08T16:55:17.975Z,88.76
2018-02-08T16:57:48.179Z,89.15
2018-02-08T17:00:18.004Z,88.71
2018-02-08T17:02:47.922Z,89.16
2018-02-08T17:05:17.951Z,89.17
2018-02-08T17:07:47.894Z,89.08
2018-02-08T17:10:21.370Z,88.93
2018-02-08T17:12:51.661Z,89.30
2018-02-08T17:15:21.637Z,89.17
2018-02-08T17:17:51.509Z,89.44
2018-02-08T17:20:21.317Z,89.47
2018-02-08T17:22:51.180Z,89.71
2018-02-08T17:25:21.136Z,89.82
2018-02-08T17:27:51.419Z,89.96
2018-02-08T17:30:21.242Z,89.71
2018-02-08T17:32:51.135Z,89.77
2018-02-08T17:35:21.027Z,89.58
2018-02-08T17:37:50.963Z,89.94
2018-02-08T17:40:24.061Z,89.53
2018-02-08T17:42:53.595Z,89.77
2018-02-08T17:45:23.404Z,89.99
2018-02-08T17:47:53.525Z,89.85
2018-02-08T17:50:23.419Z,90.50
2018-02-08T17:52:53.207Z,90.70
2018-02-08T17:55:23.015Z,90.76
2018-02-08T17:57:52.875Z,90.56
2018-02-08T18:00:23.643Z,90.54
2018-02-08T18:02:53.586Z,90.93
2018-02-08T18:05:23.496Z,90.16
2018-02-08T18:07:57.297Z,90.57
2018-02-08T18:10:27.308Z,90.54
2018-02-08T18:12:57.357Z,90.98
2018-02-08T18:15:27.527Z,91.04
2018-02-08T18:17:57.464Z,91.12
2018-02-08T18:20:27.489Z,91.05
2018-02-08T18:22:57.339Z,91.30
2018-02-08T18:25:27.244Z,91.58
2018-02-08T18:27:56.836Z,91.51
2018-02-08T18:30:26.649Z,91.79
2018-02-08T18:32:56.541Z,92.11
2018-02-08T18:35:27.439Z,91.64
2018-02-08T18:37:57.699Z,91.53
2018-02-08T18:40:27.564Z,91.83
2018-02-08T18:42:57.675Z,91.88
2018-02-08T18:45:27.911Z,91.72
2018-02-08T18:47:57.919Z,91.85
2018-02-08T18:50:27.809Z,91.86
2018-02-08T18:52:58.643Z,92.31
2018-02-08T18:55:28.719Z,92.29
2018-02-08T18:57:58.805Z,91.93
2018-02-08T19:00:28.661Z,92.12
2018-02-08T19:02:58.569Z,92.04
2018-02-08T19:05:30.332Z,92.04
2018-02-08T19:08:00.278Z,92.00
2018-02-08T19:10:30.123Z,91.36
2018-02-08T19:13:00.255Z,91.13
2018-02-08T19:15:30.122Z,91.52
2018-02-08T19:18:00.018Z,91.92
2018-02-08T19:20:30.492Z,92.26
2018-02-08T19:23:01.802Z,92.28
2018-02-08T19:25:33.476Z,92.25
2018-02-08T19:28:03.423Z,91.63
2018-02-08T19:30:33.343Z,91.37
2018-02-08T19:33:03.687Z,91.99
2018-02-08T19:35:34.395Z,91.31
2018-02-08T19:38:04.306Z,90.98
2018-02-08T19:40:34.214Z,91.42
2018-02-08T19:43:04.802Z,91.32
2018-02-08T19:45:38.127Z,91.47
2018-02-08T19:48:08.268Z,91.00
2018-02-08T19:50:38.163Z,91.06
2018-02-08T19:53:08.139Z,90.91
2018-02-08T19:55:37.693Z,90.84
2018-02-08T19:58:07.720Z,91.10
2018-02-08T20:00:37.858Z,91.21
2018-02-08T20:03:08.103Z,91.31
2018-02-08T20:05:38.385Z,91.62
2018-02-08T20:08:08.506Z,91.45
2018-02-08T20:10:38.606Z,91.76
2018-02-08T20:13:08.655Z,91.88
2018-02-08T20:15:38.941Z,92.26
2018-02-08T20:18:09.020Z,92.42
2018-02-08T20:20:39.059Z,92.42
2018-02-08T20:23:09.953Z,92.38
2018-02-08T20:25:43.010Z,92.69
2018-02-08T20:28:12.962Z,92.45
2018-02-08T20:30:49.260Z,93.04
2018-02-08T20:33:23.092Z,93.59
2018-02-08T20:35:53.208Z,93.86
2018-02-08T20:38:24.510Z,94.10
2018-02-08T20:40:54.848Z,94.11
2018-02-08T20:43:33.944Z,94.29
2018-02-08T20:46:03.924Z,94.37
2018-02-08T20:48:33.723Z,94.70
2018-02-08T20:51:03.752Z,94.72
2018-02-08T20:53:33.788Z,94.97
2018-02-08T20:56:03.887Z,95.27
2018-02-08T20:58:33.856Z,95.44
2018-02-08T21:01:03.916Z,95.48
2018-02-08T21:03:33.912Z,95.25
2018-02-08T21:06:04.223Z,95.35
2018-02-08T21:08:34.411Z,95.70
2018-02-08T21:11:04.496Z,95.93
2018-02-08T21:13:34.646Z,95.98
2018-02-08T21:16:04.789Z,96.08
2018-02-08T21:18:34.954Z,96.09
2018-02-08T21:21:04.974Z,96.21
2018-02-08T21:23:34.861Z,96.22
2018-02-08T21:26:04.876Z,96.06
2018-02-08T21:28:34.727Z,95.88
2018-02-08T21:31:04.566Z,95.87
2018-02-08T21:33:34.368Z,95.46
2018-02-08T21:36:04.214Z,95.27
2018-02-08T21:38:33.747Z,95.34
2018-02-08T21:41:03.786Z,95.38
2018-02-08T21:43:33.684Z,95.12
2018-02-08T21:46:03.520Z,94.95
2018-02-08T21:48:33.001Z,94.92
2018-02-08T21:51:02.867Z,95.00
2018-02-08T21:53:32.479Z,95.10
2018-02-08T21:56:02.326Z,95.25
2018-02-08T21:58:32.118Z,95.46
2018-02-08T22:01:01.950Z,95.62
2018-02-08T22:03:31.798Z,95.49
2018-02-08T22:06:01.649Z,95.73
2018-02-08T22:08:31.474Z,95.64
2018-02-08T22:11:01.355Z,95.89
2018-02-08T22:13:31.342Z,95.95
2018-02-08T22:16:01.323Z,95.73
2018-02-08T22:18:31.256Z,95.58
2018-02-08T22:21:01.845Z,95.47
2018-02-08T22:23:31.743Z,95.62
2018-02-08T22:26:01.865Z,95.56
2018-02-08T22:28:31.914Z,95.32
2018-02-08T22:31:01.778Z,95.06
2018-02-08T22:33:31.648Z,95.11
2018-02-08T22:36:01.558Z,95.19
2018-02-08T22:38:31.751Z,95.52
2018-02-08T22:41:01.590Z,95.71
2018-02-08T22:43:32.201Z,95.88
2018-02-08T22:46:02.060Z,95.36
2018-02-08T22:48:32.183Z,95.15
2018-02-08T22:51:03.045Z,95.23
2018-02-08T22:53:32.975Z,95.33
2018-02-08T22:56:02.991Z,95.27
2018-02-08T22:58:32.952Z,95.30
2018-02-08T23:01:02.692Z,95.34
2018-02-08T23:03:32.496Z,95.33
2018-02-08T23:06:02.545Z,95.49
2018-02-08T23:08:32.412Z,95.72
2018-02-08T23:11:02.501Z,95.77
2018-02-08T23:13:32.369Z,95.80
2018-02-08T23:16:02.222Z,95.77
2018-02-08T23:18:32.077Z,95.81
2018-02-08T23:21:01.897Z,95.91
2018-02-08T23:23:33.939Z,95.97
2018-02-08T23:26:04.175Z,95.98
2018-02-08T23:28:34.230Z,95.98
2018-02-08T23:31:04.178Z,95.43
2018-02-08T23:33:34.056Z,94.96
2018-02-08T23:36:03.907Z,94.81
2018-02-08T23:38:33.760Z,95.02
2018-02-08T23:41:05.666Z,94.99
2018-02-08T23:43:38.669Z,94.94
2018-02-08T23:46:09.049Z,95.02
2018-02-08T23:48:38.976Z,94.98
2018-02-08T23:51:08.840Z,94.62
2018-02-08T23:53:38.676Z,94.41
2018-02-08T23:56:08.532Z,94.27
2018-02-08T23:58:38.399Z,94.22
